createdAt,value
2022-10-17T00:00:47.222Z,101200.59
2022-10-17T00:03:13.629Z,101225.75
2022-10-17T00:05:42.279Z,101194.59
2022-10-17T00:08:09.894Z,101234.88
2022-10-17T00:10:36.487Z,101235.75
2022-10-17T00:13:03.411Z,101229.78
2022-10-17T00:15:29.911Z,101235.06
2022-10-17T00:17:56.419Z,101231.00
2022-10-17T00:20:22.977Z,101227.91
2022-10-17T00:22:49.444Z,101238.16
2022-10-17T00:25:16.087Z,101205.88
2022-10-17T00:27:42.722Z,101233.56
2022-10-17T00:30:13.573Z,101231.09
2022-10-17T00:32:40.312Z,101231.09
2022-10-17T00:35:08.069Z,101224.00
2022-10-17T00:37:34.822Z,101232.22
2022-10-17T00:40:01.304Z,101227.06
2022-10-17T00:42:28.392Z,101227.75
2022-10-17T00:45:06.780Z,101226.41
2022-10-17T00:47:35.198Z,101222.69
2022-10-17T00:52:35.230Z,101230.78
2022-10-17T00:55:24.429Z,101226.34
2022-10-17T00:57:51.553Z,101215.13
2022-10-17T01:00:19.040Z,101235.78
2022-10-17T01:02:46.236Z,101221.50
2022-10-17T01:05:14.208Z,101236.66
2022-10-17T01:07:42.251Z,101227.63
2022-10-17T01:10:10.358Z,101232.03
2022-10-17T01:12:39.601Z,101233.19
2022-10-17T01:15:11.400Z,101231.81
2022-10-17T01:18:00.027Z,101235.72
2022-10-17T01:20:47.776Z,101227.41
2022-10-17T01:23:43.736Z,101225.06
2022-10-17T01:26:28.588Z,101230.59
2022-10-17T01:29:19.838Z,101226.75
2022-10-17T01:32:13.926Z,101235.34
2022-10-17T01:35:08.968Z,101240.06
2022-10-17T01:37:47.921Z,101190.50
2022-10-17T01:40:25.390Z,101214.16
2022-10-17T01:42:59.446Z,101202.94
2022-10-17T01:45:37.230Z,101210.28
2022-10-17T01:48:08.907Z,101213.22
2022-10-17T01:50:41.464Z,101197.72
2022-10-17T01:53:16.410Z,101194.53
2022-10-17T01:55:46.400Z,101198.81
2022-10-17T01:58:48.072Z,101206.44
2022-10-17T02:01:15.854Z,101194.94
2022-10-17T02:03:45.144Z,101199.09
2022-10-17T02:06:11.934Z,101193.97
2022-10-17T02:08:47.249Z,101198.94
2022-10-17T02:11:17.662Z,101197.44
2022-10-17T02:14:02.241Z,101189.53
2022-10-17T02:16:42.810Z,101190.94
2022-10-17T02:19:24.723Z,101193.56
2022-10-17T02:21:54.269Z,101200.06
2022-10-17T02:24:37.897Z,101184.16
2022-10-17T02:27:12.005Z,101187.22
2022-10-17T02:29:55.430Z,101186.66
2022-10-17T02:32:26.424Z,101191.78
2022-10-17T02:34:56.765Z,101188.06
2022-10-17T02:37:25.956Z,101189.44
2022-10-17T02:39:55.125Z,101186.94
2022-10-17T02:42:23.420Z,101188.63
2022-10-17T02:44:50.487Z,101185.56
2022-10-17T02:47:33.725Z,101181.81
2022-10-17T02:50:00.976Z,101187.78
2022-10-17T02:52:45.942Z,101188.59
2022-10-17T02:55:19.562Z,101190.25
2022-10-17T02:57:54.253Z,101185.28
2022-10-17T03:00:22.652Z,101186.81
2022-10-17T03:02:53.660Z,101188.47
2022-10-17T03:05:23.375Z,101184.03
2022-10-17T03:07:50.356Z,101179.03
2022-10-17T03:10:16.819Z,101182.53
2022-10-17T03:12:43.374Z,101183.06
2022-10-17T03:15:10.714Z,101175.03
2022-10-17T03:17:37.901Z,101175.19
2022-10-17T03:20:05.768Z,101178.63
2022-10-17T03:22:32.696Z,101167.16
2022-10-17T03:24:59.311Z,101188.44
2022-10-17T03:27:25.903Z,101187.22
2022-10-17T03:29:53.204Z,101191.38
2022-10-17T03:32:19.640Z,101192.19
2022-10-17T03:34:46.039Z,101200.94
2022-10-17T03:37:12.523Z,101198.00
2022-10-17T03:39:39.029Z,101202.72
2022-10-17T03:42:05.455Z,101197.31
2022-10-17T03:44:31.909Z,101203.44
2022-10-17T03:46:58.431Z,101201.34
2022-10-17T03:49:24.943Z,101210.91
2022-10-17T03:51:51.628Z,101201.34
2022-10-17T03:54:18.120Z,101197.88
2022-10-17T03:56:44.613Z,101204.25
2022-10-17T03:59:15.549Z,101221.44
2022-10-17T04:01:42.919Z,101229.34
2022-10-17T04:04:09.829Z,101220.47
2022-10-17T04:06:37.263Z,101215.88
2022-10-17T04:09:05.652Z,101218.69
2022-10-17T04:11:32.888Z,101213.53
2022-10-17T04:13:59.736Z,101230.16
2022-10-17T04:16:26.513Z,101201.75
2022-10-17T04:18:58.074Z,101209.66
2022-10-17T04:21:26.093Z,101223.81
2022-10-17T04:23:56.872Z,101206.59
2022-10-17T04:26:23.909Z,101224.22
2022-10-17T04:28:50.837Z,101214.66
2022-10-17T04:31:18.735Z,101210.91
2022-10-17T04:33:48.118Z,101205.22
2022-10-17T04:36:17.245Z,101214.34
2022-10-17T04:38:43.973Z,101215.34
2022-10-17T04:41:13.381Z,101222.69
2022-10-17T04:43:40.524Z,101228.22
2022-10-17T04:46:10.892Z,101234.59
2022-10-17T04:48:37.805Z,101239.44
2022-10-17T04:51:07.417Z,101234.84
2022-10-17T04:53:36.188Z,101244.13
2022-10-17T04:56:09.016Z,101232.34
2022-10-17T04:58:36.235Z,101237.47
2022-10-17T05:01:10.654Z,101236.50
2022-10-17T05:03:37.201Z,101235.53
2022-10-17T05:06:09.224Z,101234.41
2022-10-17T05:08:35.809Z,101242.72
2022-10-17T05:11:02.891Z,101234.69
2022-10-17T05:13:29.676Z,101239.38
2022-10-17T05:16:01.972Z,101240.88
2022-10-17T05:18:29.081Z,101247.53
2022-10-17T05:20:55.957Z,101253.19
2022-10-17T05:23:22.640Z,101224.13
2022-10-17T05:25:54.302Z,101240.47
2022-10-17T05:28:20.726Z,101248.06
2022-10-17T05:30:47.164Z,101243.34
2022-10-17T05:33:13.680Z,101250.16
2022-10-17T05:35:40.180Z,101263.88
2022-10-17T05:38:06.652Z,101262.91
2022-10-17T05:40:34.023Z,101260.94
2022-10-17T05:43:00.528Z,101274.84
2022-10-17T05:45:26.983Z,101265.09
2022-10-17T05:47:53.465Z,101268.84
2022-10-17T05:50:21.976Z,101265.66
2022-10-17T05:52:52.417Z,101272.22
2022-10-17T05:55:18.858Z,101276.94
2022-10-17T05:57:45.279Z,101274.88
2022-10-17T06:00:12.457Z,101280.53
2022-10-17T06:02:38.951Z,101281.81
2022-10-17T06:05:05.742Z,101291.78
2022-10-17T06:07:32.271Z,101291.38
2022-10-17T06:09:59.042Z,101291.97
2022-10-17T06:12:25.526Z,101300.97
2022-10-17T06:14:51.949Z,101310.94
2022-10-17T06:17:18.412Z,101304.69
2022-10-17T06:19:45.233Z,101304.03
2022-10-17T06:22:11.952Z,101307.47
2022-10-17T06:24:38.402Z,101310.00
2022-10-17T06:27:09.347Z,101309.56
2022-10-17T06:29:38.598Z,101304.44
2022-10-17T06:32:05.428Z,101302.50
2022-10-17T06:34:31.940Z,101301.78
2022-10-17T06:36:58.432Z,101304.69
2022-10-17T06:39:26.914Z,101297.91
2022-10-17T06:41:53.357Z,101315.25
2022-10-17T06:44:19.791Z,101309.09
2022-10-17T06:46:46.268Z,101320.72
2022-10-17T06:49:12.729Z,101318.50
2022-10-17T06:51:39.184Z,101313.09
2022-10-17T06:54:05.767Z,101336.75
2022-10-17T06:56:32.247Z,101325.44
2022-10-17T06:58:58.737Z,101345.72
2022-10-17T07:01:25.450Z,101343.28
2022-10-17T07:03:52.303Z,101320.66
2022-10-17T07:06:19.164Z,101346.41
2022-10-17T07:08:46.001Z,101325.41
2022-10-17T07:11:14.738Z,101339.22
2022-10-17T07:13:41.333Z,101293.88
2022-10-17T07:16:08.660Z,101347.47
2022-10-17T07:18:35.096Z,101344.19
2022-10-17T07:21:01.684Z,101358.25
2022-10-17T07:23:28.124Z,101355.69
2022-10-17T07:26:06.773Z,101318.47
2022-10-17T07:28:37.733Z,101354.63
2022-10-17T07:31:16.171Z,101358.91
2022-10-17T07:33:43.805Z,101353.50
2022-10-17T07:36:10.478Z,101350.78
2022-10-17T07:38:36.949Z,101349.44
2022-10-17T07:41:06.770Z,101352.63
2022-10-17T07:43:33.829Z,101343.38
2022-10-17T07:46:01.965Z,101355.41
2022-10-17T07:48:28.636Z,101368.19
2022-10-17T07:50:55.069Z,101358.25
2022-10-17T07:53:21.563Z,101358.75
2022-10-17T07:55:49.576Z,101370.13
2022-10-17T07:58:16.485Z,101380.38
2022-10-17T08:00:43.382Z,101384.13
2022-10-17T08:03:10.896Z,101388.72
2022-10-17T08:05:37.321Z,101395.34
2022-10-17T08:08:03.877Z,101407.50
2022-10-17T08:10:30.342Z,101407.13
2022-10-17T08:12:58.347Z,101415.09
2022-10-17T08:15:29.379Z,101413.78
2022-10-17T08:17:59.085Z,101420.63
2022-10-17T08:20:25.587Z,101403.22
2022-10-17T08:22:55.494Z,101415.81
2022-10-17T08:25:22.970Z,101420.63
2022-10-17T08:27:49.865Z,101411.13
2022-10-17T08:30:16.888Z,101419.75
2022-10-17T08:32:43.961Z,101429.69
2022-10-17T08:35:11.055Z,101441.94
2022-10-17T08:37:37.499Z,101443.56
2022-10-17T08:40:04.882Z,101440.91
2022-10-17T08:43:04.201Z,101442.59
2022-10-17T08:45:36.721Z,101438.19
2022-10-17T08:48:09.782Z,101450.50
2022-10-17T08:50:45.360Z,101428.91
2022-10-17T08:53:33.196Z,101432.38
2022-10-17T08:56:09.341Z,101451.75
2022-10-17T08:58:38.509Z,101461.69
2022-10-17T09:01:13.661Z,101452.25
2022-10-17T09:03:58.319Z,101462.88
2022-10-17T09:06:33.103Z,101477.44
2022-10-17T09:09:14.598Z,101467.19
2022-10-17T09:12:10.062Z,101476.44
2022-10-17T09:15:11.538Z,101468.59
2022-10-17T09:18:02.278Z,101478.56
2022-10-17T09:20:42.654Z,101470.44
2022-10-17T09:23:17.368Z,101480.72
2022-10-17T09:25:54.142Z,101478.78
2022-10-17T09:28:28.088Z,101490.38
2022-10-17T09:30:54.472Z,101483.25
2022-10-17T09:33:35.045Z,101486.25
2022-10-17T09:36:11.648Z,101489.06
2022-10-17T09:38:41.724Z,101493.03
2022-10-17T09:41:32.379Z,101495.03
2022-10-17T09:44:18.554Z,101498.34
2022-10-17T09:46:56.290Z,101502.66
2022-10-17T09:49:44.238Z,101507.16
2022-10-17T09:52:35.154Z,101507.00
2022-10-17T09:55:32.282Z,101501.03
2022-10-17T09:58:01.320Z,101497.56
2022-10-17T10:00:38.003Z,101518.63
2022-10-17T10:03:10.380Z,101513.63
2022-10-17T10:05:36.944Z,101516.47
2022-10-17T10:08:12.613Z,101516.97
2022-10-17T10:10:43.078Z,101524.59
2022-10-17T10:13:20.310Z,101524.94
2022-10-17T10:15:49.431Z,101522.28
2022-10-17T10:18:24.767Z,101517.47
2022-10-17T10:21:19.978Z,101518.94
2022-10-17T10:24:04.712Z,101532.72
2022-10-17T10:26:35.365Z,101531.75
2022-10-17T10:29:06.690Z,101542.66
2022-10-17T10:31:40.022Z,101532.03
2022-10-17T10:34:19.310Z,101558.59
2022-10-17T10:36:50.961Z,101570.19
2022-10-17T10:39:57.854Z,101573.00
2022-10-17T10:42:40.752Z,101580.34
2022-10-17T10:45:42.896Z,101571.06
2022-10-17T10:48:25.376Z,101582.16
2022-10-17T10:51:04.419Z,101579.00
2022-10-17T10:53:55.419Z,101573.88
2022-10-17T10:56:48.708Z,101542.34
2022-10-17T10:59:29.279Z,101512.97
2022-10-17T11:02:11.668Z,101520.78
2022-10-17T11:05:03.922Z,101555.13
2022-10-17T11:07:39.345Z,101559.75
2022-10-17T11:10:22.054Z,101549.13
2022-10-17T11:12:55.160Z,101557.44
2022-10-17T11:15:30.366Z,101553.47
2022-10-17T11:18:07.221Z,101570.06
2022-10-17T11:20:57.690Z,101582.50
2022-10-17T11:23:48.728Z,101582.66
2022-10-17T11:26:38.375Z,101584.66
2022-10-17T11:29:09.087Z,101585.31
2022-10-17T11:31:40.354Z,101598.09
2022-10-17T11:34:21.400Z,101601.44
2022-10-17T11:36:57.040Z,101599.44
2022-10-17T11:39:35.187Z,101608.53
2022-10-17T11:42:10.739Z,101607.03
2022-10-17T11:44:42.478Z,101610.53
2022-10-17T11:47:29.949Z,101595.25
2022-10-17T11:53:34.579Z,101602.91
2022-10-17T11:56:02.028Z,101608.22
2022-10-17T11:58:57.553Z,101621.50
2022-10-17T12:01:33.061Z,101628.28
2022-10-17T12:04:21.287Z,101635.41
2022-10-17T12:07:25.562Z,101623.94
2022-10-17T12:10:16.917Z,101628.59
2022-10-17T12:12:43.549Z,101624.13
2022-10-17T12:15:12.685Z,101623.78
2022-10-17T12:17:46.902Z,101624.63
2022-10-17T12:20:25.982Z,101622.78
2022-10-17T12:23:00.936Z,101629.75
2022-10-17T12:25:32.007Z,101618.09
2022-10-17T12:28:10.853Z,101634.22
2022-10-17T12:30:49.074Z,101634.06
2022-10-17T12:33:26.861Z,101633.41
2022-10-17T12:36:21.255Z,101627.09
2022-10-17T12:38:50.309Z,101629.94
2022-10-17T12:41:17.468Z,101647.16
2022-10-17T12:46:40.973Z,101649.94
2022-10-17T12:49:23.942Z,101645.63
2022-10-17T12:52:31.971Z,101651.78
2022-10-17T12:55:18.071Z,101650.94
2022-10-17T12:58:03.894Z,101647.47
2022-10-17T13:01:05.424Z,101653.59
2022-10-17T13:03:41.799Z,101652.94
2022-10-17T13:06:21.029Z,101662.41
2022-10-17T13:08:54.509Z,101663.69
2022-10-17T13:11:26.238Z,101675.34
2022-10-17T13:13:54.757Z,101663.22
2022-10-17T13:16:34.575Z,101680.50
2022-10-17T13:19:03.398Z,101673.84
2022-10-17T13:21:30.178Z,101629.59
2022-10-17T13:23:56.676Z,101677.34
2022-10-17T13:26:28.439Z,101686.47
2022-10-17T13:29:04.147Z,101696.41
2022-10-17T13:31:32.625Z,101690.97
2022-10-17T13:34:01.725Z,101686.63
2022-10-17T13:36:30.327Z,101694.09
2022-10-17T13:39:00.361Z,101691.63
2022-10-17T13:41:35.907Z,101706.53
2022-10-17T13:44:04.234Z,101696.94
2022-10-17T13:46:38.462Z,101705.69
2022-10-17T13:49:25.803Z,101700.91
2022-10-17T13:51:56.715Z,101700.09
2022-10-17T13:54:34.052Z,101712.38
2022-10-17T13:57:02.115Z,101705.69
2022-10-17T13:59:36.966Z,101705.06
2022-10-17T14:02:03.722Z,101691.66
2022-10-17T14:04:39.971Z,101710.22
2022-10-17T14:08:10.087Z,101704.44
2022-10-17T14:10:36.910Z,101708.09
2022-10-17T14:13:08.088Z,101706.88
2022-10-17T14:15:36.655Z,101716.84
2022-10-17T14:18:08.042Z,101717.22
2022-10-17T14:23:34.144Z,101726.31
2022-10-17T14:26:15.384Z,101737.59
2022-10-17T14:28:45.215Z,101741.41
2022-10-17T14:31:25.570Z,101729.09
2022-10-17T14:33:54.143Z,101752.03
2022-10-17T14:36:30.929Z,101760.16
2022-10-17T14:38:57.849Z,101760.31
2022-10-17T14:41:44.373Z,101763.63
2022-10-17T14:44:31.994Z,101765.25
2022-10-17T14:47:18.240Z,101774.06
2022-10-17T14:50:11.968Z,101773.03
2022-10-17T14:52:39.809Z,101774.38
2022-10-17T14:55:24.837Z,101773.38
2022-10-17T14:57:51.819Z,101782.31
2022-10-17T15:00:20.403Z,101771.72
2022-10-17T15:02:48.111Z,101784.66
2022-10-17T15:05:15.915Z,101783.13
2022-10-17T15:07:43.576Z,101782.63
2022-10-17T15:10:27.714Z,101784.47
2022-10-17T15:12:59.138Z,101765.38
2022-10-17T15:15:28.048Z,101783.09
2022-10-17T15:17:54.852Z,101785.41
2022-10-17T15:20:25.975Z,101775.94
2022-10-17T15:22:53.651Z,101784.88
2022-10-17T15:25:20.282Z,101804.06
2022-10-17T15:27:46.821Z,101810.16
2022-10-17T15:30:23.677Z,101826.81
2022-10-17T15:32:51.191Z,101831.09
2022-10-17T15:35:18.451Z,101839.66
2022-10-17T15:37:46.803Z,101850.72
2022-10-17T15:40:28.817Z,101843.22
2022-10-17T15:42:59.125Z,101837.94
2022-10-17T15:45:25.528Z,101838.84
2022-10-17T15:48:05.864Z,101840.81
2022-10-17T15:50:32.518Z,101838.91
2022-10-17T15:52:59.531Z,101844.31
2022-10-17T15:55:26.186Z,101852.19
2022-10-17T15:57:52.733Z,101866.03
2022-10-17T16:00:22.493Z,101840.91
2022-10-17T16:02:49.856Z,101860.06
2022-10-17T16:05:19.708Z,101872.75
2022-10-17T16:07:46.759Z,101875.19
2022-10-17T16:10:14.392Z,101867.28
2022-10-17T16:12:43.902Z,101869.22
2022-10-17T16:15:22.932Z,101897.19
2022-10-17T16:17:52.820Z,101895.84
2022-10-17T16:20:19.795Z,101874.16
2022-10-17T16:22:46.917Z,101872.94
2022-10-17T16:25:28.178Z,101893.78
2022-10-17T16:27:56.908Z,101894.06
2022-10-17T16:30:25.978Z,101884.44
2022-10-17T16:32:53.617Z,101881.25
2022-10-17T16:35:25.830Z,101866.78
2022-10-17T16:37:52.715Z,101859.84
2022-10-17T16:40:19.687Z,101861.81
2022-10-17T16:42:46.462Z,101861.53
2022-10-17T16:45:21.683Z,101886.47
2022-10-17T16:47:48.669Z,101855.19
2022-10-17T16:50:15.823Z,101916.25
2022-10-17T16:52:42.587Z,101920.56
2022-10-17T16:55:10.051Z,101925.28
2022-10-17T16:57:36.687Z,101935.31
2022-10-17T17:00:04.893Z,101944.91
2022-10-17T17:02:31.681Z,101946.44
2022-10-17T17:04:58.393Z,101939.50
2022-10-17T17:07:24.908Z,101940.34
2022-10-17T17:09:51.549Z,101935.75
2022-10-17T17:12:18.007Z,101931.69
2022-10-17T17:14:44.546Z,101936.16
2022-10-17T17:17:19.456Z,101932.69
2022-10-17T17:19:57.095Z,101925.16
2022-10-17T17:22:23.639Z,101940.88
2022-10-17T17:27:21.575Z,101940.88
2022-10-17T17:29:48.025Z,101933.91
2022-10-17T17:32:14.725Z,101937.25
2022-10-17T17:34:41.129Z,101941.72
2022-10-17T17:37:07.594Z,101951.44
2022-10-17T17:39:34.098Z,101946.31
2022-10-17T17:42:00.574Z,101943.81
2022-10-17T17:44:27.080Z,101941.16
2022-10-17T17:46:53.647Z,101942.13
2022-10-17T17:49:21.580Z,101936.97
2022-10-17T17:51:48.107Z,101937.97
2022-10-17T17:54:15.214Z,101956.75
2022-10-17T17:56:41.955Z,101966.47
2022-10-17T17:59:11.604Z,101962.25
2022-10-17T18:01:38.996Z,101961.13
2022-10-17T18:04:08.614Z,101963.06
2022-10-17T18:06:36.697Z,101967.91
2022-10-17T18:09:03.529Z,101966.50
2022-10-17T18:11:30.260Z,101941.03
2022-10-17T18:13:59.427Z,101968.47
2022-10-17T18:16:27.207Z,101969.56
2022-10-17T18:18:54.132Z,101974.16
2022-10-17T18:21:20.634Z,101980.97
2022-10-17T18:23:48.612Z,101966.88
2022-10-17T18:26:15.502Z,101991.78
2022-10-17T18:28:43.270Z,101984.72
2022-10-17T18:31:15.497Z,101989.28
2022-10-17T18:33:44.524Z,101986.31
2022-10-17T18:36:13.839Z,101989.47
2022-10-17T18:38:40.731Z,101990.69
2022-10-17T18:41:10.173Z,101999.88
2022-10-17T18:43:38.083Z,101999.69
2022-10-17T18:46:16.615Z,102004.63
2022-10-17T18:48:44.707Z,102000.13
2022-10-17T18:51:12.629Z,102004.44
2022-10-17T18:53:43.507Z,101896.91
2022-10-17T18:56:11.065Z,101998.13
2022-10-17T18:58:38.535Z,101993.84
2022-10-17T19:01:08.073Z,101999.09
2022-10-17T19:03:34.936Z,101996.59
2022-10-17T19:06:09.534Z,102001.88
2022-10-17T19:08:37.252Z,102000.19
2022-10-17T19:11:08.515Z,101969.00
2022-10-17T19:13:35.933Z,102000.13
2022-10-17T19:16:07.744Z,102000.66
2022-10-17T19:18:35.134Z,102002.00
2022-10-17T19:21:06.278Z,102009.44
2022-10-17T19:23:35.782Z,102018.81
2022-10-17T19:26:05.532Z,102011.56
2022-10-17T19:28:32.816Z,102017.91
2022-10-17T19:30:59.602Z,102012.91
2022-10-17T19:33:26.090Z,102005.09
2022-10-17T19:36:04.834Z,102011.94
2022-10-17T19:38:31.794Z,102013.88
2022-10-17T19:41:01.210Z,102010.88
2022-10-17T19:43:28.310Z,102021.56
2022-10-17T19:46:03.175Z,102015.56
2022-10-17T19:48:32.679Z,101993.66
2022-10-17T19:50:59.351Z,102024.66
2022-10-17T19:53:29.616Z,102027.28
2022-10-17T19:55:57.512Z,102005.38
2022-10-17T19:58:25.017Z,102030.28
2022-10-17T20:00:56.612Z,102027.53
2022-10-17T20:03:24.790Z,102013.88
2022-10-17T20:05:52.242Z,102025.13
2022-10-17T20:08:19.399Z,102021.91
2022-10-17T20:10:46.320Z,102025.13
2022-10-17T20:13:13.815Z,102033.41
2022-10-17T20:15:40.277Z,102030.06
2022-10-17T20:18:07.697Z,102032.69
2022-10-17T20:20:35.529Z,102037.28
2022-10-17T20:23:02.360Z,102043.88
2022-10-17T20:25:28.863Z,102042.66
2022-10-17T20:27:55.372Z,102035.81
2022-10-17T20:30:21.846Z,102035.22
2022-10-17T20:32:48.290Z,102029.50
2022-10-17T20:35:14.773Z,102036.53
2022-10-17T20:37:42.690Z,102038.94
2022-10-17T20:40:33.744Z,102033.41
2022-10-17T20:42:56.452Z,102035.81
2022-10-17T20:45:37.361Z,102044.44
2022-10-17T20:48:14.065Z,102034.97
2022-10-17T20:50:41.398Z,102037.00
2022-10-17T20:53:34.927Z,102041.47
2022-10-17T20:56:04.425Z,102039.75
2022-10-17T20:58:30.935Z,102031.25
2022-10-17T21:00:57.362Z,102036.19
2022-10-17T21:03:24.331Z,102025.88
2022-10-17T21:05:50.756Z,102032.34
2022-10-17T21:08:17.203Z,102026.09
2022-10-17T21:10:43.650Z,101976.00
2022-10-17T21:13:10.051Z,102037.28
2022-10-17T21:15:36.439Z,102043.88
2022-10-17T21:18:02.950Z,102050.44
2022-10-17T21:20:29.376Z,102050.09
2022-10-17T21:22:57.276Z,102061.59
2022-10-17T21:25:23.830Z,102056.56
2022-10-17T21:27:52.630Z,102057.53
2022-10-17T21:30:20.906Z,102047.72
2022-10-17T21:32:51.526Z,102050.00
2022-10-17T21:35:18.532Z,102053.34
2022-10-17T21:37:44.948Z,102054.31
2022-10-17T21:40:12.150Z,102065.06
2022-10-17T21:42:38.623Z,102064.94
2022-10-17T21:45:10.768Z,102070.13
2022-10-17T21:47:45.611Z,102062.31
2022-10-17T21:50:21.586Z,102062.44
2022-10-17T21:52:47.989Z,102069.63
2022-10-17T21:55:14.581Z,102059.81
2022-10-17T21:57:41.010Z,102064.81
2022-10-17T22:00:08.222Z,102071.06
2022-10-17T22:02:34.634Z,102064.09
2022-10-17T22:05:01.087Z,102066.13
2022-10-17T22:07:27.522Z,102062.69
2022-10-17T22:09:53.938Z,102071.75
2022-10-17T22:12:20.360Z,102062.31
2022-10-17T22:14:46.787Z,102068.53
2022-10-17T22:17:13.273Z,102075.81
2022-10-17T22:19:39.749Z,102059.31
2022-10-17T22:22:06.178Z,102046.25
2022-10-17T22:24:32.787Z,102060.16
2022-10-17T22:26:59.273Z,102067.72
2022-10-17T22:29:25.752Z,102067.47
2022-10-17T22:31:52.161Z,102070.09
2022-10-17T22:34:18.956Z,102064.81
2022-10-17T22:36:47.608Z,102076.81
2022-10-17T22:39:14.459Z,102084.47
2022-10-17T22:41:40.897Z,102074.66
2022-10-17T22:44:07.482Z,102078.00
2022-10-17T22:46:33.929Z,102023.16
2022-10-17T22:49:00.539Z,102084.34
2022-10-17T22:51:27.023Z,102089.25
2022-10-17T22:53:53.470Z,102089.88
2022-10-17T22:56:21.501Z,102084.34
2022-10-17T22:58:48.286Z,102082.41
2022-10-17T23:01:18.247Z,102078.84
2022-10-17T23:03:46.121Z,102086.75
2022-10-17T23:06:13.128Z,102042.47
2022-10-17T23:08:40.693Z,102071.66
2022-10-17T23:11:08.088Z,102076.78
2022-10-17T23:13:35.530Z,102074.91
2022-10-17T23:16:02.066Z,102073.44
2022-10-17T23:18:28.513Z,102074.91
2022-10-17T23:20:55.534Z,102074.91
2022-10-17T23:23:22.702Z,102074.03
2022-10-17T23:25:49.761Z,102076.69
2022-10-17T23:28:16.749Z,102088.28
2022-10-17T23:30:43.687Z,102047.72
2022-10-17T23:33:11.968Z,102090.09
2022-10-17T23:35:38.877Z,102094.31
2022-10-17T23:38:05.317Z,102096.94
2022-10-17T23:40:31.797Z,102100.41
2022-10-17T23:42:58.302Z,102092.59
2022-10-17T23:45:24.767Z,102101.81
2022-10-17T23:47:51.214Z,102089.97
2022-10-17T23:50:18.094Z,102091.03
2022-10-17T23:52:44.632Z,102090.34
2022-10-17T23:55:11.267Z,102094.53
2022-10-17T23:57:37.773Z,102065.31
